Austinburg, OH

4:45 AM EDT on September 02, 2014 (GMT -0400)
Clay Street | Change Station
CLOSE
Current Station
Personal Weather Station
Location: Austinburg, OH
Elevation: 860 ft
Nearby Weather Stations

Elev 860 ft 41.78 °N, 80.82 °W | Updated 3 seconds ago

Clear
Clear
71.4 °F
Feels Like 71.4 °F
N
0.7
Wind Variable Wind from South
Gusts 3.8 mph

Today
High -- | Low -- °F
--% Chance of Precip.
Yesterday
High -- | Low -- °F
Precip. -- in
6:50 AM 7:55 PM
Waxing Crescent, 49% visible
Pressure 29.87 in
Visibility 10.0 miles
Clouds Few 2500 ft
Dew Point 71 °F
Humidity 99%
Rainfall 0.00 in
Snow Depth Not available.
UV 0 out of 12
Pollen 9.10 out of 12
Ozone Good
PM2.5 Moderate
Flu Activity Not available.
METAR KHZY 020753Z AUTO 21006KT 10SM FEW025 22/21 A2990 RMK AO2 SLP115 T02220211

More Conditions Fewer Conditions

Pressure 29.87 in
Visibility 10.0 miles
Clouds Few 2500 ft
Dew Point 71 °F
Humidity 99%
Rainfall 0.00 in
Snow Depth Not available.
UV 0 out of 12
Pollen 9.10 out of 12
Ozone Good
PM2.5 Moderate
Flu Activity Not available.
METAR KHZY 020753Z AUTO 21006KT 10SM FEW025 22/21 A2990 RMK AO2 SLP115 T02220211

More Conditions Fewer Conditions

10-Day Weather Forecast

Almanac

Astronomy

Sep. 02, 2014 Rise Set
Actual Time 6:50 AM EDT 7:55 PM EDT
Civil Twilight 6:21 AM EDT 8:23 PM EDT
Nautical Twilight 5:47 AM EDT 8:57 PM EDT
Astronomical Twilight 5:11 AM EDT 9:33 PM EDT
Moon 2:39 PM EDT No Moon Set
Length of Visible Light 14h 01m
Length of Day
13h 04m
Tomorrow will be 2m 43s shorter.
Waxing Crescent, 49% of the Moon is Illuminated
Today
Waxing Crescent
Sep 2
First Quarter
Sep 8
Full
Sep 15
Last Quarter
Sep 24
New

Today's Extremes

State Highs State Lows

Community

WunderPhotos

Upload Photos

1,749,587 photos uploaded!

WunderBlogs® & News

Nearby

Air Quality

  Air Quality AQ Index Pollutant
Yesterday Good
PM10
Yesterday Good
OZONE
Current Moderate
PM2.5
Current Good
OZONE
Tuesday Moderate
PM2.5
Tuesday Good
OZONE
Wednesday Moderate
PM2.5
Wednesday Good
OZONE
Thursday Moderate
PM2.5
Thursday Good
OZONE

Snow Depth

Station Depth Elevation
No new snow has been reported.

Earthquake Activity

City Distance Mag. Time & Date
No recent earthquake activity has been reported nearby.
Minimum magnitude displayed is 2.5.

Coastal Water Temperatures

Place Temperature
Fairport, OH 73.0 °F
Cleveland, OH 72.0 °F

Nearby Weather Stations